Time;durP1;ratioP1;P1;durP2;ratioP2;P2;SDS_P1;SDS_P2;PMS_P1;PMS_P2;Temp;Humidity;BMP_temperature;BMP_pressure;BME280_temperature;BME280_humidity;BME280_pressure;Samples;Min_cycle;Max_cycle;Signal;HPM_P1;HPM_P2
2021/05/14 00:00:03;;;;;;;10.50;2.20;;;;;;;14.50;76.33;100758.53;5032658;28;20124;-63
2021/05/14 00:02:33;;;;;;;2.63;1.57;;;;;;;14.49;76.31;100764.41;5029934;28;20045;-61
2021/05/14 00:05:00;;;;;;;8.33;2.90;;;;;;;14.46;76.32;100755.47;5033307;28;20052;-61
2021/05/14 00:07:27;;;;;;;6.73;2.63;;;;;;;14.46;76.33;100752.66;5030911;28;20112;-61
2021/05/14 00:09:54;;;;;;;6.60;2.50;;;;;;;14.32;76.45;100743.25;5033272;28;20050;-61
2021/05/14 00:12:21;;;;;;;5.80;2.47;;;;;;;14.46;76.25;100757.41;5040298;28;20041;-62
2021/05/14 00:14:48;;;;;;;4.77;2.37;;;;;;;14.38;76.16;100756.09;5034789;28;20055;-60
2021/05/14 00:17:15;;;;;;;6.43;2.43;;;;;;;14.31;76.08;100750.03;5037371;28;20129;-62
2021/05/14 00:19:42;;;;;;;5.80;2.30;;;;;;;14.38;76.11;100761.72;5032202;28;20061;-60
2021/05/14 00:22:09;;;;;;;6.63;2.23;;;;;;;14.37;76.20;100754.44;5033994;28;20419;-61
2021/05/14 00:24:36;;;;;;;6.87;2.97;;;;;;;14.33;76.12;100752.56;5032964;28;20056;-60
2021/05/14 00:27:06;;;;;;;7.57;2.47;;;;;;;14.31;76.14;100750.03;5031892;28;20044;-60
2021/05/14 00:29:35;;;;;;;5.13;2.60;;;;;;;14.30;76.13;100744.72;5033873;28;20041;-62
2021/05/14 00:32:01;;;;;;;5.40;2.20;;;;;;;14.25;75.92;100745.59;5038593;28;20132;-60
2021/05/14 00:34:34;;;;;;;5.50;3.00;;;;;;;14.26;75.83;100746.47;5036907;28;20053;-61
2021/05/14 00:37:05;;;;;;;15.70;3.90;;;;;;;14.28;75.87;100759.06;5033869;28;20432;-60
2021/05/14 00:39:32;;;;;;;8.70;3.50;;;;;;;14.20;75.76;100754.09;5036322;28;20076;-63
2021/05/14 00:42:00;;;;;;;6.07;2.47;;;;;;;14.19;75.74;100752.44;5036732;28;20059;-64
2021/05/14 00:44:33;;;;;;;5.80;2.83;;;;;;;14.14;75.93;100738.44;5042970;28;20132;-61
2021/05/14 00:47:03;;;;;;;9.27;2.80;;;;;;;14.14;75.82;100749.69;5043585;28;20491;-62
2021/05/14 00:49:30;;;;;;;5.63;3.03;;;;;;;14.11;75.95;100753.09;5040257;28;20060;-62
2021/05/14 00:51:59;;;;;;;10.10;3.77;;;;;;;13.96;75.90;100732.50;5036557;28;20052;-63
2021/05/14 00:54:30;;;;;;;10.83;3.60;;;;;;;13.85;76.07;100716.91;5037305;28;20077;-63
2021/05/14 00:56:58;;;;;;;7.93;3.47;;;;;;;13.99;76.11;100743.13;5035855;28;20132;-63
2021/05/14 00:59:30;;;;;;;4.60;2.33;;;;;;;13.98;76.48;100744.28;5041351;28;20053;-63
2021/05/14 01:01:57;;;;;;;6.97;3.10;;;;;;;13.97;76.48;100751.00;5039757;28;20042;-62
2021/05/14 01:04:25;;;;;;;8.70;3.47;;;;;;;13.96;76.56;100749.34;5036466;28;20045;-61
2021/05/14 01:06:52;;;;;;;6.60;2.97;;;;;;;13.94;76.52;100743.16;5038095;28;20073;-61
2021/05/14 01:09:24;;;;;;;7.97;2.80;;;;;;;13.95;76.50;100742.06;5038495;28;20041;-64
2021/05/14 01:11:51;;;;;;;9.23;3.07;;;;;;;13.96;76.51;100743.72;5043366;28;20430;-62
2021/05/14 01:14:19;;;;;;;9.40;3.10;;;;;;;13.91;76.44;100732.56;5041847;28;20562;-62
2021/05/14 01:16:46;;;;;;;13.10;3.07;;;;;;;13.95;76.26;100725.22;5041314;28;20330;-62
2021/05/14 01:19:13;;;;;;;7.33;3.23;;;;;;;13.89;76.03;100708.72;5035524;28;20472;-61
2021/05/14 01:21:41;;;;;;;8.60;2.53;;;;;;;13.92;76.18;100724.97;5044356;28;20051;-62
2021/05/14 01:24:12;;;;;;;12.60;2.93;;;;;;;13.91;76.29;100712.91;5044115;28;20134;-63
2021/05/14 01:26:42;;;;;;;8.53;2.90;;;;;;;13.79;76.19;100704.06;5035920;28;20059;-63
2021/05/14 01:29:11;;;;;;;14.40;3.13;;;;;;;13.92;76.55;100739.84;5039052;28;20137;-62
2021/05/14 01:31:39;;;;;;;10.70;3.80;;;;;;;13.91;76.20;100741.00;5033383;28;20399;-63
2021/05/14 01:34:07;;;;;;;6.57;3.00;;;;;;;13.93;76.16;100730.28;5039449;28;20615;-62
2021/05/14 01:36:36;;;;;;;7.93;3.50;;;;;;;13.82;75.91;100713.88;5042702;28;20045;-62
2021/05/14 01:39:11;;;;;;;11.77;3.13;;;;;;;13.88;76.24;100733.16;5042234;28;20045;-62
2021/05/14 01:41:38;;;;;;;17.33;4.80;;;;;;;13.86;75.96;100721.38;5038142;28;20045;-62
2021/05/14 01:44:06;;;;;;;10.50;2.97;;;;;;;13.89;75.88;100712.38;5042742;28;20045;-61
2021/05/14 01:46:34;;;;;;;12.03;3.37;;;;;;;13.93;76.15;100724.66;5039283;28;20041;-62
2021/05/14 01:49:02;;;;;;;7.40;3.17;;;;;;;13.73;75.71;100689.25;5036288;28;20193;-61
2021/05/14 01:51:30;;;;;;;9.77;4.40;;;;;;;13.91;75.56;100726.94;5038109;28;20037;-61
2021/05/14 01:53:57;;;;;;;8.60;3.03;;;;;;;13.73;75.31;100694.84;5039025;28;20045;-62
2021/05/14 01:56:32;;;;;;;9.82;3.20;;;;;;;13.87;75.26;100717.44;5039824;28;20045;-62
2021/05/14 01:59:03;;;;;;;7.13;3.07;;;;;;;13.83;75.22;100716.34;5041684;28;20090;-61
2021/05/14 02:01:29;;;;;;;7.50;3.07;;;;;;;13.85;75.25;100718.88;5037572;28;20042;-63
2021/05/14 02:03:56;;;;;;;7.63;2.93;;;;;;;13.84;75.13;100718.03;5039480;28;20055;-64
2021/05/14 02:06:25;;;;;;;10.80;3.80;;;;;;;13.81;75.16;100720.59;5034934;28;20077;-61
2021/05/14 02:08:51;;;;;;;9.97;2.97;;;;;;;13.78;74.97;100716.44;5040300;28;20124;-61
2021/05/14 02:11:18;;;;;;;10.93;3.43;;;;;;;13.75;75.11;100719.84;5036862;28;20045;-61
2021/05/14 02:13:45;;;;;;;8.77;4.23;;;;;;;13.67;74.95;100700.81;5038853;28;20056;-68
2021/05/14 02:16:13;;;;;;;13.37;3.93;;;;;;;13.63;74.95;100700.59;5037696;28;20045;-66
2021/05/14 02:18:41;;;;;;;10.10;3.73;;;;;;;13.58;74.86;100692.22;5040889;28;20046;-70
2021/05/14 02:21:10;;;;;;;10.23;3.37;;;;;;;13.65;74.88;100714.34;5040509;28;20052;-62
2021/05/14 02:23:37;;;;;;;10.97;3.77;;;;;;;13.55;74.97;100706.03;5043463;28;20052;-64
2021/05/14 02:26:04;;;;;;;10.43;4.03;;;;;;;13.64;74.87;100723.88;5037158;28;20072;-64
2021/05/14 02:28:31;;;;;;;20.57;6.10;;;;;;;13.64;74.81;100723.88;5036441;28;20137;-65
2021/05/14 02:30:58;;;;;;;9.00;4.47;;;;;;;13.34;74.63;100666.97;5039366;28;20122;-68
2021/05/14 02:33:25;;;;;;;8.20;3.50;;;;;;;13.60;74.62;100723.63;5035023;28;20122;-66
2021/05/14 02:35:52;;;;;;;7.87;3.30;;;;;;;13.56;74.56;100713.28;5033048;28;20132;-65
2021/05/14 02:38:19;;;;;;;9.87;3.93;;;;;;;13.54;74.53;100721.16;5041131;28;20056;-65
2021/05/14 02:40:47;;;;;;;9.87;3.57;;;;;;;13.34;74.42;100692.19;5037098;28;20092;-64
2021/05/14 02:43:14;;;;;;;10.23;3.73;;;;;;;13.47;74.55;100713.97;5035999;28;20473;-62
2021/05/14 02:45:44;;;;;;;8.67;3.83;;;;;;;13.42;74.52;100710.34;5035206;28;20049;-60
2021/05/14 02:48:11;;;;;;;10.07;4.40;;;;;;;13.36;74.57;100706.75;5031971;28;20045;-60
2021/05/14 02:50:38;;;;;;;10.70;3.87;;;;;;;13.40;74.58;100718.22;5031526;28;20045;-60
2021/05/14 02:53:05;;;;;;;13.73;4.83;;;;;;;13.27;74.34;100705.75;5038081;28;20045;-61
2021/05/14 02:55:32;;;;;;;13.50;4.73;;;;;;;13.34;74.45;100716.63;5031485;28;20056;-61
2021/05/14 02:57:58;;;;;;;9.07;4.03;;;;;;;13.28;74.45;100699.00;5035770;28;20442;-62
2021/05/14 03:00:26;;;;;;;9.40;5.00;;;;;;;13.32;74.52;100707.66;5035154;28;20049;-64
2021/05/14 03:02:53;;;;;;;11.93;4.40;;;;;;;13.29;74.47;100711.88;5035061;28;20068;-65
2021/05/14 03:05:20;;;;;;;11.00;4.83;;;;;;;13.27;74.80;100714.16;5033845;28;20060;-65
2021/05/14 03:07:47;;;;;;;13.63;4.37;;;;;;;13.28;74.58;100715.81;5037651;28;20042;-62
2021/05/14 03:10:14;;;;;;;9.17;4.03;;;;;;;13.27;74.39;100703.75;5037336;28;20141;-64
2021/05/14 03:12:40;;;;;;;15.33;4.50;;;;;;;13.26;74.35;100712.47;5035291;28;20049;-64
2021/05/14 03:15:11;;;;;;;9.55;4.28;;;;;;;13.15;74.35;100694.88;5037354;28;20488;-64
2021/05/14 03:17:40;;;;;;;9.27;4.70;;;;;;;13.19;74.34;100706.31;5036952;28;20041;-63
2021/05/14 03:20:08;;;;;;;12.77;5.43;;;;;;;13.18;74.24;100702.69;5038986;28;20124;-63
2021/05/14 03:22:35;;;;;;;10.20;4.27;;;;;;;13.20;74.31;100708.84;5033812;28;20128;-62
2021/05/14 03:25:03;;;;;;;12.00;4.53;;;;;;;13.14;74.11;100715.63;5039300;28;20132;-64
2021/05/14 03:27:31;;;;;;;16.60;4.17;;;;;;;13.19;74.17;100729.59;5035946;28;20482;-62
2021/05/14 03:29:58;;;;;;;14.03;4.53;;;;;;;13.16;74.17;100729.34;5031423;28;20060;-64
2021/05/14 03:32:25;;;;;;;13.00;4.57;;;;;;;13.07;74.11;100725.50;5042576;28;20546;-63
2021/05/14 03:34:52;;;;;;;12.20;4.30;;;;;;;13.13;74.13;100746.75;5031000;28;20056;-61
2021/05/14 03:37:20;;;;;;;9.53;4.40;;;;;;;13.12;74.20;100745.91;5038259;28;20052;-62
2021/05/14 03:39:51;;;;;;;13.57;4.30;;;;;;;13.09;74.22;100734.44;5034847;28;20478;-60
2021/05/14 03:42:23;;;;;;;13.60;4.07;;;;;;;13.14;74.04;100731.63;5034794;28;20052;-62
2021/05/14 03:44:51;;;;;;;9.90;4.43;;;;;;;13.15;73.95;100730.47;5040345;28;20384;-61
2021/05/14 03:47:21;;;;;;;10.07;4.17;;;;;;;13.09;73.99;100726.03;5037699;28;20056;-62
2021/05/14 03:49:48;;;;;;;12.02;4.35;;;;;;;13.10;73.80;100731.38;5035584;28;20045;-63
2021/05/14 03:52:15;;;;;;;9.50;3.87;;;;;;;13.03;73.64;100714.88;5035123;28;20433;-62
2021/05/14 03:54:42;;;;;;;10.10;3.83;;;;;;;13.03;73.92;100716.84;5032530;28;20570;-61
2021/05/14 03:57:12;;;;;;;11.77;3.85;;;;;;;13.02;73.88;100724.44;5039910;28;20412;-61
2021/05/14 03:59:41;;;;;;;10.23;4.13;;;;;;;13.00;73.98;100720.25;5035059;28;20060;-61
2021/05/14 04:02:10;;;;;;;9.63;4.37;;;;;;;12.96;73.85;100716.34;5036562;28;20045;-60
2021/05/14 04:04:37;;;;;;;11.60;4.77;;;;;;;13.01;73.76;100733.13;5034463;28;20045;-60
2021/05/14 04:07:05;;;;;;;10.50;4.37;;;;;;;12.98;73.67;100730.91;5033776;28;20056;-61
2021/05/14 04:09:34;;;;;;;10.13;4.63;;;;;;;12.97;73.77;100735.69;5038905;28;20041;-61
2021/05/14 04:14:32;;;;;;;15.88;6.07;;;;;;;12.95;73.39;100749.13;5033125;28;20488;-61
2021/05/14 04:17:15;;;;;;;11.87;4.27;;;;;;;12.95;73.65;100749.13;5034970;28;20038;-61
2021/05/14 04:19:42;;;;;;;12.07;3.97;;;;;;;12.85;73.73;100734.34;5038566;28;20460;-61
2021/05/14 04:22:09;;;;;;;9.37;4.00;;;;;;;12.89;74.21;100753.13;5039221;28;20052;-60
2021/05/14 04:24:36;;;;;;;11.33;5.07;;;;;;;12.91;74.09;100745.25;5039272;28;20396;-66
2021/05/14 04:27:03;;;;;;;8.73;4.23;;;;;;;12.95;74.33;100753.91;5038826;28;20053;-64
2021/05/14 04:29:32;;;;;;;15.85;4.90;;;;;;;12.97;74.12;100754.47;5034102;28;20136;-64
2021/05/14 04:32:02;;;;;;;10.13;4.30;;;;;;;12.96;74.17;100748.03;5036491;28;20408;-65
2021/05/14 04:34:29;;;;;;;12.53;3.87;;;;;;;12.88;74.24;100743.03;5036786;28;20048;-65
2021/05/14 04:37:02;;;;;;;8.60;4.03;;;;;;;12.91;74.73;100755.63;5040588;28;20045;-63
2021/05/14 04:39:32;;;;;;;10.27;4.67;;;;;;;12.90;74.83;100752.00;5041080;28;20049;-65
2021/05/14 04:41:59;;;;;;;12.47;4.23;;;;;;;12.70;75.06;100721.31;5040307;28;20476;-65
2021/05/14 04:44:27;;;;;;;11.30;3.80;;;;;;;12.74;74.74;100739.19;5042194;28;20057;-63
2021/05/14 04:46:54;;;;;;;8.23;3.83;;;;;;;12.88;74.55;100767.41;5039720;28;20053;-61
2021/05/14 04:49:21;;;;;;;13.20;4.60;;;;;;;12.91;74.45;100767.66;5040059;28;20516;-65
2021/05/14 04:51:49;;;;;;;14.53;3.83;;;;;;;12.86;74.24;100762.13;5044887;28;20075;-65
2021/05/14 04:54:16;;;;;;;11.17;4.00;;;;;;;12.90;74.27;100766.00;5036847;28;20053;-67
2021/05/14 04:56:43;;;;;;;10.33;4.00;;;;;;;12.71;74.15;100742.59;5036909;28;20532;-70
2021/05/14 04:59:12;;;;;;;12.73;4.13;;;;;;;12.88;73.95;100773.84;5044705;28;20139;-69
2021/05/14 05:01:42;;;;;;;10.43;4.13;;;;;;;12.79;74.06;100754.03;5041163;28;20283;-67
2021/05/14 05:04:14;;;;;;;8.90;3.57;;;;;;;12.89;73.98;100775.56;5037908;28;20049;-69
2021/05/14 05:06:42;;;;;;;9.80;3.30;;;;;;;12.85;74.13;100766.03;5039380;28;20170;-62
2021/05/14 05:09:12;;;;;;;10.77;3.90;;;;;;;12.85;74.28;100768.81;5034371;28;20045;-63
2021/05/14 05:11:38;;;;;;;12.07;5.05;;;;;;;12.78;74.32;100757.09;5037219;28;20049;-63
2021/05/14 05:14:05;;;;;;;13.47;4.07;;;;;;;12.77;74.39;100764.69;5039493;28;20045;-65
2021/05/14 05:16:32;;;;;;;15.53;3.70;;;;;;;12.83;74.45;100775.88;5038843;28;20045;-63
2021/05/14 05:19:02;;;;;;;7.87;4.13;;;;;;;12.76;74.68;100773.38;5039118;28;20067;-62
2021/05/14 05:21:29;;;;;;;9.55;3.85;;;;;;;12.69;74.79;100772.88;5038625;28;20487;-65
2021/05/14 05:23:58;;;;;;;8.47;3.40;;;;;;;12.73;75.09;100779.56;5033754;28;20056;-62
2021/05/14 05:26:27;;;;;;;8.00;2.83;;;;;;;12.70;75.17;100782.94;5037987;28;20128;-65
2021/05/14 05:28:54;;;;;;;12.77;4.38;;;;;;;12.65;75.30;100763.34;5036204;28;20484;-65
2021/05/14 05:31:20;;;;;;;6.80;3.53;;;;;;;12.64;75.51;100770.91;5036749;28;20052;-64
2021/05/14 05:33:48;;;;;;;9.73;3.63;;;;;;;12.54;75.82;100766.22;5036907;28;20053;-63
2021/05/14 05:36:15;;;;;;;7.20;2.73;;;;;;;12.56;75.95;100774.34;5035766;28;20059;-63
2021/05/14 05:38:42;;;;;;;8.43;3.80;;;;;;;12.51;75.95;100769.63;5036019;28;20042;-64
2021/05/14 05:41:09;;;;;;;7.17;3.17;;;;;;;12.42;75.95;100760.13;5036212;28;20050;-64
2021/05/14 05:43:36;;;;;;;8.20;2.83;;;;;;;12.48;76.01;100764.59;5033946;28;20045;-62
2021/05/14 05:46:03;;;;;;;14.60;3.40;;;;;;;12.52;76.43;100771.28;5036433;28;20411;-64
2021/05/14 05:48:30;;;;;;;9.07;3.43;;;;;;;12.63;76.36;100772.06;5042353;28;20084;-66
2021/05/14 05:50:57;;;;;;;5.43;2.77;;;;;;;12.70;76.39;100777.34;5039480;28;20432;-63
2021/05/14 05:53:24;;;;;;;6.77;3.30;;;;;;;12.72;76.37;100756.31;5037828;28;20047;-65
2021/05/14 05:55:50;;;;;;;7.00;3.27;;;;;;;13.01;76.28;100766.75;5037811;28;20072;-61
2021/05/14 05:58:18;;;;;;;7.23;2.83;;;;;;;13.21;76.18;100762.97;5040505;28;20127;-68
2021/05/14 06:00:47;;;;;;;;;;;;;;;13.37;76.20;100764.56;5040075;28;20045;-66
2021/05/14 06:03:15;;;;;;;11.23;3.77;;;;;;;13.45;76.14;100769.50;5045418;28;19925;-67
2021/05/14 06:05:42;;;;;;;16.10;3.57;;;;;;;13.63;76.02;100779.16;5043739;28;20068;-66
2021/05/14 06:08:09;;;;;;;9.17;3.27;;;;;;;13.78;76.17;100781.00;5041126;28;20049;-66
2021/05/14 06:10:36;;;;;;;11.47;3.30;;;;;;;13.86;76.29;100777.53;5034851;28;20051;-68
2021/05/14 06:13:06;;;;;;;10.00;4.50;;;;;;;14.03;75.97;100788.28;5036431;28;20128;-67
2021/05/14 06:15:34;;;;;;;5.50;3.03;;;;;;;14.34;75.61;100800.00;5033691;28;20626;-66
2021/05/14 06:18:01;;;;;;;14.77;4.00;;;;;;;14.53;75.36;100796.41;5038188;28;20046;-67
2021/05/14 06:20:32;;;;;;;10.93;3.80;;;;;;;14.64;74.89;100790.38;5040433;28;20041;-66
2021/05/14 06:22:59;;;;;;;8.70;3.60;;;;;;;14.72;74.96;100783.22;5035861;28;20064;-66
2021/05/14 06:25:27;;;;;;;8.57;3.70;;;;;;;14.98;74.46;100794.94;5038946;28;20038;-67
2021/05/14 06:28:06;;;;;;;6.83;3.10;;;;;;;15.28;74.34;100804.88;5033289;28;20053;-67
2021/05/14 06:30:34;;;;;;;11.27;3.28;;;;;;;15.33;74.04;100795.53;5034225;28;20124;-67
2021/05/14 06:33:00;;;;;;;9.45;3.22;;;;;;;15.63;73.74;100819.50;5036391;28;20051;-67
2021/05/14 06:35:29;;;;;;;8.10;2.90;;;;;;;15.80;73.47;100819.78;5038907;28;20041;-67
2021/05/14 06:37:59;;;;;;;6.18;3.30;;;;;;;15.94;73.12;100808.56;5034574;28;20475;-68
2021/05/14 06:40:28;;;;;;;6.65;2.53;;;;;;;16.01;73.09;100808.16;5037475;28;20156;-66
2021/05/14 06:42:55;;;;;;;8.38;3.88;;;;;;;16.32;72.57;100817.66;5040148;28;20135;-66
2021/05/14 06:45:23;;;;;;;6.25;3.20;;;;;;;16.45;72.20;100803.88;5037938;28;20057;-65
2021/05/14 06:48:01;;;;;;;4.93;2.53;;;;;;;16.64;72.08;100798.94;5039075;28;20082;-67
2021/05/14 06:50:28;;;;;;;4.35;2.50;;;;;;;16.86;71.15;100811.50;5040608;28;20601;-66
2021/05/14 06:52:55;;;;;;;7.03;2.63;;;;;;;17.09;70.73;100815.16;5042086;28;20056;-67
2021/05/14 06:55:22;;;;;;;6.55;3.08;;;;;;;17.19;69.82;100798.81;5040486;28;20075;-66
2021/05/14 06:57:51;;;;;;;5.68;3.00;;;;;;;17.40;70.24;100818.09;5039016;28;20056;-69
2021/05/14 07:00:19;;;;;;;9.50;2.85;;;;;;;17.49;69.15;100813.34;5040992;28;20136;-67
2021/05/14 07:02:49;;;;;;;9.77;2.58;;;;;;;17.71;68.36;100816.19;5031435;28;20096;-68
2021/05/14 07:05:17;;;;;;;8.68;2.33;;;;;;;17.89;66.78;100828.44;5038625;28;20137;-68
2021/05/14 07:07:45;;;;;;;6.65;2.60;;;;;;;17.99;66.24;100833.00;5032716;28;20041;-68
2021/05/14 07:10:12;;;;;;;8.85;2.47;;;;;;;18.18;65.71;100835.56;5032756;28;20499;-68
2021/05/14 07:12:39;;;;;;;10.68;2.38;;;;;;;18.38;65.08;100834.16;5032331;28;20048;-69
2021/05/14 07:15:09;;;;;;;3.22;2.00;;;;;;;18.55;64.37;100830.56;5033143;28;20429;-68
2021/05/14 07:17:37;;;;;;;6.78;2.20;;;;;;;18.69;62.88;100840.59;5033749;28;20178;-68
2021/05/14 07:20:05;;;;;;;4.32;1.77;;;;;;;18.76;62.15;100833.66;5035962;28;20046;-68
2021/05/14 07:22:32;;;;;;;4.97;1.50;;;;;;;18.94;61.09;100852.38;5032290;28;20223;-68
2021/05/14 07:24:59;;;;;;;7.97;1.45;;;;;;;18.90;60.72;100849.31;5032539;28;20155;-68
2021/05/14 07:27:25;;;;;;;3.25;1.67;;;;;;;19.05;60.17;100865.03;5033142;28;20038;-69
2021/05/14 07:29:52;;;;;;;4.70;1.40;;;;;;;19.19;59.75;100870.53;5032507;28;20128;-68
2021/05/14 07:32:19;;;;;;;7.30;1.77;;;;;;;19.29;59.12;100877.88;5033594;28;20045;-69
2021/05/14 07:34:46;;;;;;;3.97;1.58;;;;;;;19.36;58.49;100875.38;5036719;28;20531;-68
2021/05/14 07:37:13;;;;;;;10.10;2.25;;;;;;;19.50;58.19;100878.06;5032441;28;20057;-69
2021/05/14 07:39:41;;;;;;;2.58;1.85;;;;;;;19.46;57.17;100860.91;5032443;28;20047;-69
2021/05/14 07:42:08;;;;;;;6.43;1.38;;;;;;;19.68;56.75;100888.25;5033006;28;20473;-68
2021/05/14 07:44:36;;;;;;;4.85;2.00;;;;;;;19.82;56.61;100888.91;5032331;28;20149;-68
2021/05/14 07:47:04;;;;;;;7.35;1.80;;;;;;;19.41;56.16;100827.06;5031622;28;20112;-69
2021/05/14 07:49:32;;;;;;;5.82;1.85;;;;;;;20.00;55.93;100872.72;5031704;28;20049;-69
2021/05/14 07:51:59;;;;;;;3.40;2.03;;;;;;;20.09;55.62;100870.69;5048335;28;20049;-69
2021/05/14 07:54:26;;;;;;;7.50;4.25;;;;;;;20.24;55.22;100877.84;5036396;28;20045;-68
2021/05/14 07:57:01;;;;;;;4.90;2.70;;;;;;;20.36;54.86;100874.28;5040578;28;20049;-68
2021/05/14 07:59:30;;;;;;;12.82;2.63;;;;;;;20.47;54.29;100872.72;5042318;28;20049;-67
2021/05/14 08:01:57;;;;;;;5.47;2.10;;;;;;;20.61;53.89;100881.03;5042060;28;20068;-67
2021/05/14 08:04:24;;;;;;;5.63;1.83;;;;;;;20.71;53.43;100868.47;5040552;28;20050;-63
2021/05/14 08:06:51;;;;;;;10.88;2.20;;;;;;;20.62;53.01;100848.69;5042987;28;20492;-66
2021/05/14 08:09:22;;;;;;;7.03;1.70;;;;;;;20.71;53.15;100852.28;5037056;28;20103;-66
2021/05/14 08:11:52;;;;;;;3.50;1.77;;;;;;;20.89;52.62;100849.34;5040228;28;20393;-66
2021/05/14 08:14:20;;;;;;;8.25;1.52;;;;;;;20.99;52.29;100858.31;5035690;28;20475;-68
2021/05/14 08:16:47;;;;;;;5.32;2.05;;;;;;;21.08;52.02;100863.94;5035240;28;20164;-68
2021/05/14 08:19:14;;;;;;;10.30;2.40;;;;;;;21.30;51.77;100868.47;5041476;28;20051;-69
2021/05/14 08:21:45;;;;;;;5.28;1.40;;;;;;;21.56;50.72;100856.91;5035802;28;20047;-66
2021/05/14 08:24:13;;;;;;;6.68;2.00;;;;;;;21.77;50.59;100866.22;5034489;28;20055;-65
2021/05/14 08:26:41;;;;;;;7.40;2.00;;;;;;;21.87;50.09;100864.97;5039701;28;20046;-65
2021/05/14 08:29:09;;;;;;;4.25;1.45;;;;;;;21.76;49.30;100877.97;5034787;28;20056;-65
2021/05/14 08:31:40;;;;;;;4.30;1.60;;;;;;;21.35;49.13;100856.09;5034193;28;20095;-64
2021/05/14 08:34:10;;;;;;;5.20;1.50;;;;;;;20.77;49.78;100848.06;5034286;28;20049;-65
2021/05/14 08:36:39;;;;;;;5.22;2.30;;;;;;;20.41;50.41;100876.09;5034206;28;20510;-67
2021/05/14 08:39:07;;;;;;;5.47;1.50;;;;;;;20.18;50.67;100873.50;5034246;28;20099;-66
2021/05/14 08:41:35;;;;;;;6.07;1.63;;;;;;;20.18;50.72;100878.34;5034946;28;20045;-66
2021/05/14 08:44:05;;;;;;;7.22;2.03;;;;;;;20.13;50.83;100874.50;5035622;28;20053;-66
2021/05/14 08:46:35;;;;;;;9.55;1.98;;;;;;;20.11;50.31;100874.03;5036059;28;20045;-66
2021/05/14 08:49:11;;;;;;;6.15;1.63;;;;;;;20.37;51.16;100884.44;5034382;28;20049;-66
2021/05/14 08:51:39;;;;;;;4.38;1.60;;;;;;;20.97;50.17;100869.19;5038592;28;20154;-66
2021/05/14 08:54:07;;;;;;;3.63;1.60;;;;;;;21.51;48.91;100863.63;5038885;28;20403;-67
2021/05/14 08:56:35;;;;;;;3.70;1.60;;;;;;;21.60;48.33;100868.41;5034513;28;20053;-63
2021/05/14 08:59:02;;;;;;;3.03;1.40;;;;;;;21.15;48.92;100881.25;5041604;28;20052;-66
2021/05/14 09:01:29;;;;;;;3.58;1.38;;;;;;;20.68;49.34;100908.88;5033781;28;20077;-66
2021/05/14 09:04:10;;;;;;;7.63;1.75;;;;;;;20.11;50.22;100904.38;5038510;28;20041;-64
2021/05/14 09:06:39;;;;;;;5.00;1.40;;;;;;;19.51;50.38;100893.88;5040121;28;20045;-67
2021/05/14 09:09:08;;;;;;;3.17;1.75;;;;;;;19.43;50.56;100921.03;5039062;28;20049;-65
2021/05/14 09:11:39;;;;;;;5.68;1.58;;;;;;;19.90;50.53;100926.91;5038731;28;20037;-65
2021/05/14 09:14:41;;;;;;;6.90;2.05;;;;;;;20.47;50.38;100920.94;5033816;28;20042;-65
2021/05/14 09:17:18;;;;;;;5.97;1.38;;;;;;;20.36;50.10;100914.81;5035259;28;20420;-64
2021/05/14 09:19:47;;;;;;;5.97;2.13;;;;;;;20.19;49.84;100891.34;5042941;28;20045;-67
2021/05/14 09:22:20;;;;;;;4.97;2.13;;;;;;;19.93;50.11;100899.88;5043860;28;20053;-68
2021/05/14 09:24:55;;;;;;;5.43;1.50;;;;;;;19.62;50.78;100909.38;5038392;28;20045;-68
2021/05/14 09:27:29;;;;;;;9.57;1.88;;;;;;;19.38;51.30;100912.69;5034865;28;20049;-67
2021/05/14 09:29:58;;;;;;;3.85;1.70;;;;;;;19.20;51.22;100894.03;5033739;28;20049;-67
2021/05/14 09:32:33;;;;;;;4.50;1.85;;;;;;;19.04;51.43;100891.69;5033861;28;20455;-68
2021/05/14 09:35:02;;;;;;;5.13;1.80;;;;;;;18.90;51.70;100880.47;5042085;28;20488;-67
2021/05/14 09:37:49;;;;;;;4.78;1.42;;;;;;;18.70;51.90;100872.56;5037145;28;20045;-67
2021/05/14 09:40:21;;;;;;;8.27;2.58;;;;;;;18.67;51.94;100895.84;5034935;28;20037;-65
2021/05/14 09:42:56;;;;;;;4.25;1.52;;;;;;;18.50;52.20;100890.97;5039005;28;20110;-66
2021/05/14 09:45:31;;;;;;;3.95;1.40;;;;;;;18.39;52.26;100886.72;5037496;28;20049;-66
2021/05/14 09:48:18;;;;;;;3.83;1.08;;;;;;;18.31;52.37;100871.38;5042084;28;20376;-65
2021/05/14 09:50:50;;;;;;;14.38;2.38;;;;;;;18.33;52.38;100894.53;5035730;28;20416;-65
2021/05/14 09:53:21;;;;;;;4.78;2.08;;;;;;;18.49;52.36;100906.22;5036442;28;20045;-66
2021/05/14 09:56:02;;;;;;;6.53;1.70;;;;;;;18.48;52.50;100888.44;5041795;28;20076;-64
2021/05/14 09:58:31;;;;;;;4.80;1.63;;;;;;;18.56;52.30;100919.91;5037621;28;20066;-66
2021/05/14 10:00:58;;;;;;;7.82;2.15;;;;;;;18.55;52.48;100916.25;5034048;28;20049;-67
2021/05/14 10:03:30;;;;;;;6.32;1.38;;;;;;;18.53;52.18;100929.91;5041319;28;20045;-65
2021/05/14 10:06:02;;;;;;;5.88;2.50;;;;;;;18.55;52.36;100935.22;5022234;28;20049;-64
2021/05/14 10:08:33;;;;;;;3.60;1.33;;;;;;;18.61;52.36;100928.28;5040311;28;20173;-64
2021/05/14 10:11:03;;;;;;;4.57;1.20;;;;;;;18.59;52.26;100933.41;5035352;28;20045;-65
2021/05/14 10:13:32;;;;;;;7.30;1.63;;;;;;;18.76;51.92;100935.50;5043099;28;20527;-64
2021/05/14 10:16:06;;;;;;;5.30;1.58;;;;;;;18.85;52.02;100933.56;5034853;28;20057;-66
2021/05/14 10:18:36;;;;;;;3.92;1.25;;;;;;;19.09;51.65;100942.47;5038751;28;20046;-64
2021/05/14 10:21:08;;;;;;;7.83;1.10;;;;;;;19.40;51.43;100955.69;5037185;28;20045;-65
2021/05/14 10:23:55;;;;;;;8.23;1.50;;;;;;;19.60;51.47;100932.38;5037058;28;20127;-64
2021/05/14 10:26:36;;;;;;;5.28;1.38;;;;;;;20.46;50.47;100942.00;5039457;28;20120;-65
2021/05/14 10:29:13;;;;;;;6.60;1.98;;;;;;;21.47;49.04;100941.38;5033493;28;20052;-65
2021/05/14 10:31:47;;;;;;;2.28;1.38;;;;;;;21.82;47.72;100941.13;5039760;28;20052;-66
2021/05/14 10:34:16;;;;;;;2.25;1.10;;;;;;;21.75;47.50;100930.31;5037026;28;20041;-65
2021/05/14 10:36:45;;;;;;;3.72;1.33;;;;;;;22.05;47.59;100911.16;5043611;28;20076;-66
2021/05/14 10:39:15;;;;;;;4.57;1.80;;;;;;;22.45;46.91;100933.34;5036077;28;20049;-64
2021/05/14 10:42:04;;;;;;;8.63;3.05;;;;;;;22.99;46.97;100920.97;5037129;28;20069;-65
2021/05/14 10:44:51;;;;;;;5.15;1.92;;;;;;;23.45;46.33;100908.22;5034746;28;20080;-63
2021/05/14 10:47:38;;;;;;;9.68;4.03;;;;;;;24.09;45.28;100901.59;5037755;28;20049;-64
2021/05/14 10:50:36;;;;;;;4.43;1.75;;;;;;;24.69;44.52;100890.22;5037961;28;20096;-65
2021/05/14 10:53:16;;;;;;;4.07;1.10;;;;;;;24.68;44.13;100905.69;5037899;28;20056;-64
2021/05/14 10:55:44;;;;;;;2.95;1.00;;;;;;;24.36;43.69;100899.91;5035282;28;20124;-65
2021/05/14 10:58:45;;;;;;;2.72;1.17;;;;;;;24.09;43.83;100900.78;5036272;28;20045;-65
2021/05/14 11:01:44;;;;;;;2.55;1.13;;;;;;;23.99;44.71;100895.59;5033685;28;20045;-64
2021/05/14 11:04:11;;;;;;;5.00;1.40;;;;;;;24.59;43.51;100902.19;4995813;28;20045;-66
2021/05/14 11:06:44;;;;;;;3.72;1.05;;;;;;;25.13;42.55;100881.56;5034473;28;20048;-65
2021/05/14 11:09:12;;;;;;;4.68;1.15;;;;;;;25.58;41.73;100888.69;5043895;28;20132;-66
2021/05/14 11:12:08;;;;;;;3.92;1.27;;;;;;;25.80;41.76;100894.91;5036388;28;20857;-64
2021/05/14 11:14:45;;;;;;;3.80;1.35;;;;;;;25.89;41.20;100878.34;5031549;28;20045;-63
2021/05/14 11:17:20;;;;;;;2.38;1.20;;;;;;;25.80;40.64;100887.16;5038266;28;20049;-64
2021/05/14 11:19:54;;;;;;;3.90;1.50;;;;;;;25.54;40.43;100890.66;5037022;28;20511;-63
2021/05/14 11:22:23;;;;;;;4.43;1.73;;;;;;;25.71;40.44;100895.94;5037994;28;20045;-65
2021/05/14 11:24:53;;;;;;;5.60;1.58;;;;;;;25.98;40.03;100904.69;5036763;28;20450;-64
2021/05/14 11:27:31;;;;;;;5.70;1.83;;;;;;;26.03;40.10;100898.66;5035096;28;20563;-65
2021/05/14 11:30:09;;;;;;;2.03;1.50;;;;;;;25.83;39.15;100897.84;5032775;28;20511;-65
2021/05/14 11:32:46;;;;;;;3.45;1.30;;;;;;;25.59;39.00;100904.66;5032806;28;20045;-64
2021/05/14 11:35:20;;;;;;;3.47;1.25;;;;;;;25.25;38.53;100910.00;5032860;28;20053;-65
2021/05/14 11:37:56;;;;;;;1.02;0.80;;;;;;;24.73;39.66;100901.75;5038070;28;20045;-65